Time;durP1;ratioP1;P1;durP2;ratioP2;P2;SDS_P1;SDS_P2;PMS_P1;PMS_P2;Temp;Humidity;BMP_temperature;BMP_pressure;BME280_temperature;BME280_humidity;BME280_pressure;Samples;Min_cycle;Max_cycle;Signal;HPM_P1;HPM_P2
2023/01/09 00:01:32;;;;;;;;;;;;;;;5.16;100.00;99167.81;5089631;28;19924;-77
2023/01/09 00:03:57;;;;;;;;;;;;;;;5.16;100.00;99157.31;5086826;28;19935;-76
2023/01/09 00:06:22;;;;;;;;;;;;;;;5.16;100.00;99159.94;5089528;28;19931;-76
2023/01/09 00:08:48;;;;;;;;;;;;;;;5.16;100.00;99161.69;5069168;28;19939;-76
2023/01/09 00:11:13;;;;;;;;;;;;;;;5.18;100.00;99157.25;5070390;28;20420;-75
2023/01/09 00:13:39;;;;;;;;;;;;;;;5.18;100.00;99165.09;5068644;28;19935;-76
2023/01/09 00:16:05;;;;;;;;;;;;;;;5.17;100.00;99160.75;5068429;28;19932;-76
2023/01/09 00:18:30;;;;;;;;;;;;;;;5.18;100.00;99161.63;5087273;28;19932;-76
2023/01/09 00:20:58;;;;;;;;;;;;;;;5.16;100.00;99157.31;5087126;28;19928;-75
2023/01/09 00:23:23;;;;;;;;;;;;;;;5.17;100.00;99150.25;5087232;28;19963;-75
2023/01/09 00:25:49;;;;;;;;;;;;;;;5.17;100.00;99150.25;5086239;28;20387;-75
2023/01/09 00:28:14;;;;;;;;;;;;;;;5.16;100.00;99157.31;5086678;28;19979;-75
2023/01/09 00:30:39;;;;;;;;;;;;;;;5.14;100.00;99151.25;5086860;28;20397;-76
2023/01/09 00:33:05;;;;;;;;;;;;;;;5.14;100.00;99151.25;5086930;28;19932;-76
2023/01/09 00:35:30;;;;;;;;;;;;;;;5.15;100.00;99153.00;5086891;28;20369;-76
2023/01/09 00:37:59;;;;;;;;;;;;;;;5.18;100.00;99151.13;5068321;28;19935;-76
2023/01/09 00:40:25;;;;;;;;;;;;;;;5.21;100.00;99149.19;5086049;28;19945;-76
2023/01/09 00:42:51;;;;;;;;;;;;;;;5.25;100.00;99147.25;5067907;28;19927;-76
2023/01/09 00:45:18;;;;;;;;;;;;;;;5.30;100.00;99159.22;5067808;28;20859;-76
2023/01/09 00:47:48;;;;;;;;;;;;;;;5.37;100.00;99151.03;5086916;28;19932;-76
2023/01/09 00:50:18;;;;;;;;;;;;;;;5.43;100.00;99150.72;5085540;28;19928;-77
2023/01/09 00:52:43;;;;;;;;;;;;;;;5.48;100.00;99159.22;5051083;28;19945;-76
2023/01/09 00:55:09;;;;;;;;;;;;;;;5.51;100.00;99164.31;5086035;28;19928;-77
2023/01/09 00:57:34;;;;;;;;;;;;;;;5.54;100.00;99165.91;5086193;28;19954;-77
2023/01/09 01:00:00;;;;;;;;;;;;;;;5.55;100.00;99160.59;5086260;28;19939;-76
2023/01/09 01:02:25;;;;;;;;;;;;;;;5.56;100.00;99164.91;5056340;28;19928;-77
2023/01/09 01:07:37;;;;;;;;;;;;;;;5.57;100.00;99179.75;5086261;28;20066;-77
2023/01/09 01:10:07;;;;;;;;;;;;;;;5.57;100.00;99179.75;5086377;28;19928;-77
2023/01/09 01:12:32;;;;;;;;;;;;;;;5.60;100.00;99181.38;5085997;28;20481;-76
2023/01/09 01:14:57;;;;;;;;;;;;;;;5.61;100.00;99176.97;5085649;28;19938;-76
2023/01/09 01:17:23;;;;;;;;;;;;;;;5.62;100.00;99178.66;5066726;28;19939;-76
2023/01/09 01:19:48;;;;;;;;;;;;;;;5.61;100.00;99180.44;5067123;28;19935;-76
2023/01/09 01:22:13;;;;;;;;;;;;;;;5.61;100.00;99192.72;5084363;28;20291;-76
2023/01/09 01:24:39;;;;;;;;;;;;;;;5.58;100.00;99184.06;5085791;28;20320;-75
2023/01/09 01:27:04;;;;;;;;;;;;;;;5.59;100.00;99187.53;5067983;28;19935;-76
2023/01/09 01:29:30;;;;;;;;;;;;;;;5.58;100.00;99193.72;5085752;28;19979;-76
2023/01/09 01:31:55;;;;;;;;;;;;;;;5.55;100.00;99186.00;5085477;28;19932;-76
2023/01/09 01:34:21;;;;;;;;;;;;;;;5.53;100.00;99191.34;5066891;28;19928;-76
2023/01/09 01:36:46;;;;;;;;;;;;;;;5.49;100.00;99184.53;5066375;28;19931;-76
2023/01/09 01:39:12;;;;;;;;;;;;;;;5.43;100.00;99187.47;5066902;28;19938;-76
2023/01/09 01:41:37;;;;;;;;;;;;;;;5.40;100.00;99187.66;5066694;28;20351;-76
2023/01/09 01:44:04;;;;;;;;;;;;;;;5.37;100.00;99198.28;5085012;28;19966;-76
2023/01/09 01:46:30;;;;;;;;;;;;;;;5.33;100.00;99194.13;5067015;28;19942;-76
2023/01/09 01:49:00;;;;;;;;;;;;;;;5.27;100.00;99192.63;5071236;28;19924;-76
2023/01/09 01:51:26;;;;;;;;;;;;;;;5.24;100.00;99195.44;5085875;28;19934;-76
2023/01/09 01:53:52;;;;;;;;;;;;;;;5.21;100.00;99200.81;5066199;28;19924;-77
2023/01/09 01:56:18;;;;;;;;;;;;;;;5.15;100.00;99194.09;5054768;28;19945;-77
2023/01/09 01:58:44;;;;;;;;;;;;;;;5.11;100.00;99197.78;5085314;28;22131;-76
2023/01/09 02:01:10;;;;;;;;;;;;;;;5.07;100.00;99206.75;5066645;28;19924;-76
2023/01/09 02:03:35;;;;;;;;;;;;;;;5.03;100.00;99214.75;5067316;28;19942;-76
2023/01/09 02:06:03;;;;;;;;;;;;;;;4.98;100.00;99208.03;5057438;28;19953;-76
2023/01/09 02:08:28;;;;;;;;;;;;;;;4.95;100.00;99209.03;5066963;28;19924;-77
2023/01/09 02:10:54;;;;;;;;;;;;;;;4.92;100.00;99214.44;5084956;28;19935;-76
2023/01/09 02:13:19;;;;;;;;;;;;;;;4.89;100.00;99217.19;5049343;28;20613;-76
2023/01/09 02:15:54;;;;;;;;;;;;;;;4.85;100.00;99215.66;5085106;28;19931;-76
2023/01/09 02:18:19;;;;;;;;;;;;;;;4.80;100.00;99212.41;5085070;28;20475;-76
2023/01/09 02:20:47;;;;;;;;;;;;;;;4.76;100.00;99215.16;5085218;28;19927;-76
2023/01/09 02:23:31;;;;;;;;;;;;;;;4.71;100.00;99211.91;5066901;28;20345;-77
2023/01/09 02:26:29;;;;;;;;;;;;;;;4.68;100.00;99208.59;5086104;28;20153;-76
2023/01/09 02:29:10;;;;;;;;;;;;;;;4.63;100.00;99216.66;5042890;28;20432;-76
2023/01/09 02:31:44;;;;;;;;;;;;;;;4.61;100.00;99218.50;5089776;28;19959;-77
2023/01/09 02:34:09;;;;;;;;;;;;;;;4.58;100.00;99209.00;5075987;28;19931;-76
2023/01/09 02:37:00;;;;;;;;;;;;;;;4.57;100.00;99219.59;5088732;28;20145;-76
2023/01/09 02:39:25;;;;;;;;;;;;;;;4.54;100.00;99223.19;5067501;28;19928;-76
2023/01/09 02:41:59;;;;;;;;;;;;;;;4.54;100.00;99220.56;5088637;28;19932;-76
2023/01/09 02:44:28;;;;;;;;;;;;;;;4.55;100.00;99221.41;5069950;28;19982;-76
2023/01/09 02:47:04;;;;;;;;;;;;;;;4.54;100.00;99225.81;5089689;28;19969;-76
2023/01/09 02:49:29;;;;;;;;;;;;;;;4.55;100.00;99226.66;5088764;28;19920;-77
2023/01/09 02:52:15;;;;;;;;;;;;;;;4.54;100.00;99225.81;5089396;28;19942;-76
2023/01/09 02:54:49;;;;;;;;;;;;;;;4.54;100.00;99232.81;5088337;28;19923;-76
2023/01/09 02:57:18;;;;;;;;;;;;;;;4.51;100.00;99231.19;5088685;28;19927;-76
2023/01/09 03:00:06;;;;;;;;;;;;;;;4.49;100.00;99235.66;5089389;28;19946;-77
2023/01/09 03:02:33;;;;;;;;;;;;;;;4.45;100.00;99232.31;5075765;28;19951;-76
2023/01/09 03:05:10;;;;;;;;;;;;;;;4.43;100.00;99234.19;5088670;28;20015;-76
2023/01/09 03:07:36;;;;;;;;;;;;;;;4.43;100.00;99233.31;5070268;28;19927;-75
2023/01/09 03:10:07;;;;;;;;;;;;;;;4.42;100.00;99236.84;5070387;28;20363;-75
2023/01/09 03:12:33;;;;;;;;;;;;;;;4.40;100.00;99233.47;5070617;28;19963;-76
2023/01/09 03:14:58;;;;;;;;;;;;;;;4.39;100.00;99237.84;5056516;28;20016;-76
2023/01/09 03:17:28;;;;;;;;;;;;;;;4.37;100.00;99237.06;5069946;28;20279;-76
2023/01/09 03:19:54;;;;;;;;;;;;;;;4.37;100.00;99239.69;5088255;28;20433;-76
2023/01/09 03:22:19;;;;;;;;;;;;;;;4.37;100.00;99230.97;5070249;28;19935;-76
2023/01/09 03:24:45;;;;;;;;;;;;;;;4.38;100.00;99236.16;5088470;28;19932;-76
2023/01/09 03:27:10;;;;;;;;;;;;;;;4.39;100.00;99227.38;5088254;28;20360;-75
2023/01/09 03:29:36;;;;;;;;;;;;;;;4.40;100.00;99236.09;5069784;28;20018;-75
2023/01/09 03:32:01;;;;;;;;;;;;;;;4.41;100.00;99240.41;5069916;28;19927;-74
2023/01/09 03:34:27;;;;;;;;;;;;;;;4.40;100.00;99234.31;5069714;28;19923;-74
2023/01/09 03:36:52;;;;;;;;;;;;;;;4.38;100.00;99233.53;5088795;28;20377;-74
2023/01/09 03:39:17;;;;;;;;;;;;;;;4.35;100.00;99231.03;5088391;28;19975;-74
2023/01/09 03:41:43;;;;;;;;;;;;;;;4.34;100.00;99235.44;5071129;28;19978;-74
2023/01/09 03:44:10;;;;;;;;;;;;;;;4.34;100.00;99234.56;5091353;28;19932;-75
2023/01/09 03:46:36;;;;;;;;;;;;;;;4.33;100.00;99240.75;5088776;28;20014;-74
2023/01/09 03:49:01;;;;;;;;;;;;;;;4.34;100.00;99247.69;5089343;28;19957;-73
2023/01/09 03:51:26;;;;;;;;;;;;;;;4.34;100.00;99245.06;5087606;28;20034;-74
2023/01/09 03:53:51;;;;;;;;;;;;;;;4.33;100.00;99241.59;5069040;28;19996;-74
2023/01/09 03:56:17;;;;;;;;;;;;;;;4.33;100.00;99243.38;5069036;28;19974;-75
2023/01/09 03:58:42;;;;;;;;;;;;;;;4.30;100.00;99251.38;5068279;28;19928;-75
2023/01/09 04:01:11;;;;;;;;;;;;;;;4.28;100.00;99250.56;5086824;28;19927;-74
2023/01/09 04:03:36;;;;;;;;;;;;;;;4.25;100.00;99246.31;5086692;28;19963;-74
2023/01/09 04:06:02;;;;;;;;;;;;;;;4.23;100.00;99253.41;5087400;28;20438;-73
2023/01/09 04:08:27;;;;;;;;;;;;;;;4.21;100.00;99256.09;5068446;28;20850;-74
2023/01/09 04:10:52;;;;;;;;;;;;;;;4.18;100.00;99253.63;5069115;28;20386;-74
2023/01/09 04:13:18;;;;;;;;;;;;;;;4.18;100.00;99252.75;5087414;28;19928;-74
2023/01/09 04:15:43;;;;;;;;;;;;;;;4.17;100.00;99249.28;5086870;28;19920;-74
2023/01/09 04:18:08;;;;;;;;;;;;;;;4.20;100.00;99250.94;5069085;28;19928;-75
2023/01/09 04:20:34;;;;;;;;;;;;;;;4.26;100.00;99252.41;5087098;28;19931;-75
2023/01/09 04:22:59;;;;;;;;;;;;;;;4.30;100.00;99248.75;5086947;28;19928;-74
2023/01/09 04:25:25;;;;;;;;;;;;;;;4.32;100.00;99245.13;5087202;28;19933;-74
2023/01/09 04:27:50;;;;;;;;;;;;;;;4.35;100.00;99241.50;5087071;28;19938;-74
2023/01/09 04:30:16;;;;;;;;;;;;;;;4.37;100.00;99246.69;5086778;28;19981;-74
2023/01/09 04:32:41;;;;;;;;;;;;;;;4.37;100.00;99241.44;5068313;28;19931;-74
2023/01/09 04:35:07;;;;;;;;;;;;;;;4.35;100.00;99236.28;5087167;28;19992;-74
2023/01/09 04:37:32;;;;;;;;;;;;;;;4.34;100.00;99247.69;5070773;28;19928;-74
2023/01/09 04:39:57;;;;;;;;;;;;;;;4.32;100.00;99246.91;5086054;28;19928;-74
2023/01/09 04:42:23;;;;;;;;;;;;;;;4.30;100.00;99246.13;5087522;28;19932;-74
2023/01/09 04:44:52;;;;;;;;;;;;;;;4.29;100.00;99252.28;5071844;28;19934;-74
2023/01/09 04:47:18;;;;;;;;;;;;;;;4.26;100.00;99255.03;5086053;28;19935;-74
2023/01/09 04:49:43;;;;;;;;;;;;;;;4.24;100.00;99262.13;5068027;28;19932;-74
2023/01/09 04:52:08;;;;;;;;;;;;;;;4.22;100.00;99264.81;5086476;28;19932;-74
2023/01/09 04:54:34;;;;;;;;;;;;;;;4.18;100.00;99269.34;5086255;28;19980;-74
2023/01/09 04:56:59;;;;;;;;;;;;;;;4.16;100.00;99265.94;5086104;28;19928;-75
2023/01/09 04:59:24;;;;;;;;;;;;;;;4.15;100.00;99269.44;5086804;28;19928;-75
2023/01/09 05:01:51;;;;;;;;;;;;;;;4.14;100.00;99274.78;5086525;28;19931;-74
2023/01/09 05:04:16;;;;;;;;;;;;;;;4.08;100.00;99271.50;5086186;28;19938;-75
2023/01/09 05:06:42;;;;;;;;;;;;;;;4.06;100.00;99277.72;5067285;28;19928;-74
2023/01/09 05:09:07;;;;;;;;;;;;;;;4.04;100.00;99276.94;5086300;28;19932;-74
2023/01/09 05:11:32;;;;;;;;;;;;;;;4.02;100.00;99281.38;5067095;28;19932;-75
2023/01/09 05:13:58;;;;;;;;;;;;;;;3.98;100.00;99278.03;5068246;28;19973;-74
2023/01/09 05:16:23;;;;;;;;;;;;;;;3.97;100.00;99280.75;5084424;28;20322;-74
2023/01/09 05:18:48;;;;;;;;;;;;;;;3.96;100.00;99281.66;5053405;28;20697;-74
2023/01/09 05:21:14;;;;;;;;;;;;;;;3.94;100.00;99284.34;5085807;28;19955;-74
2023/01/09 05:23:39;;;;;;;;;;;;;;;3.93;100.00;99283.47;5085405;28;19939;-74
2023/01/09 05:26:05;;;;;;;;;;;;;;;3.91;100.00;99295.81;5085409;28;19987;-74
2023/01/09 05:28:30;;;;;;;;;;;;;;;3.91;100.00;99293.19;5068400;28;19946;-75
2023/01/09 05:30:56;;;;;;;;;;;;;;;3.89;100.00;99292.41;5085393;28;19931;-75
2023/01/09 05:33:21;;;;;;;;;;;;;;;3.90;100.00;99293.25;5050492;28;20063;-75
2023/01/09 05:35:46;;;;;;;;;;;;;;;3.90;100.00;99307.19;5084769;28;19953;-75
2023/01/09 05:38:12;;;;;;;;;;;;;;;3.91;100.00;99302.78;5068189;28;19936;-75
2023/01/09 05:40:37;;;;;;;;;;;;;;;3.91;100.00;99306.28;5066578;28;19934;-73
2023/01/09 05:43:02;;;;;;;;;;;;;;;3.93;100.00;99312.28;5085118;28;19927;-74
2023/01/09 05:45:28;;;;;;;;;;;;;;;3.96;100.00;99310.47;5068167;28;19935;-74
2023/01/09 05:47:53;;;;;;;;;;;;;;;3.98;100.00;99304.22;5067058;28;20379;-74
2023/01/09 05:50:18;;;;;;;;;;;;;;;4.02;100.00;99304.94;5085472;28;20313;-74
2023/01/09 05:52:44;;;;;;;;;;;;;;;4.06;100.00;99298.69;5067747;28;20306;-74
2023/01/09 05:55:09;;;;;;;;;;;;;;;4.10;100.00;99302.88;5085009;28;20394;-74
2023/01/09 05:57:34;;;;;;;;;;;;;;;4.13;100.00;99300.13;5066920;28;19924;-74
2023/01/09 06:00:00;;;;;;;;;;;;;;;4.17;100.00;99300.81;5086776;28;20311;-75
2023/01/09 06:02:25;;;;;;;;;;;;;;;4.20;100.00;99309.41;5089743;28;19931;-74
2023/01/09 06:04:50;;;;;;;;;;;;;;;4.24;100.00;99301.44;5087734;28;19938;-74
2023/01/09 06:07:16;;;;;;;;;;;;;;;4.27;100.00;99306.53;5071574;28;19928;-74
2023/01/09 06:09:41;;;;;;;;;;;;;;;4.27;100.00;99302.16;5089333;28;19928;-74
2023/01/09 06:12:06;;;;;;;;;;;;;;;4.29;100.00;99307.28;5071258;28;19924;-74
2023/01/09 06:14:32;;;;;;;;;;;;;;;4.29;100.00;99307.28;5089399;28;20306;-74
2023/01/09 06:16:57;;;;;;;;;;;;;;;4.29;100.00;99307.28;5071353;28;20007;-75
2023/01/09 06:19:22;;;;;;;;;;;;;;;4.28;100.00;99305.59;5088684;28;19935;-75
2023/01/09 06:21:48;;;;;;;;;;;;;;;4.26;100.00;99307.44;5070747;28;19927;-75
2023/01/09 06:24:13;;;;;;;;;;;;;;;4.25;100.00;99305.75;5088902;28;19932;-74
2023/01/09 06:26:38;;;;;;;;;;;;;;;4.23;100.00;99310.22;5089132;28;20390;-75
2023/01/09 06:29:04;;;;;;;;;;;;;;;4.20;100.00;99312.03;5089317;28;20382;-75
2023/01/09 06:31:29;;;;;;;;;;;;;;;4.18;100.00;99315.63;5089448;28;19931;-75
2023/01/09 06:33:54;;;;;;;;;;;;;;;4.15;100.00;99319.22;5089313;28;20481;-75
2023/01/09 06:36:20;;;;;;;;;;;;;;;4.14;100.00;99328.00;5070414;28;19928;-75
2023/01/09 06:38:45;;;;;;;;;;;;;;;4.14;100.00;99327.16;5071673;28;20005;-75
2023/01/09 06:41:11;;;;;;;;;;;;;;;4.11;100.00;99330.78;5088468;28;20129;-75
2023/01/09 06:43:36;;;;;;;;;;;;;;;4.10;100.00;99334.31;5088697;28;19931;-75
2023/01/09 06:46:04;;;;;;;;;;;;;;;4.08;100.00;99333.50;5088982;28;19928;-75
2023/01/09 06:48:29;;;;;;;;;;;;;;;4.08;100.00;99334.38;5071025;28;19934;-75
2023/01/09 06:50:55;;;;;;;;;;;;;;;4.06;100.00;99336.22;5088853;28;19928;-75
2023/01/09 06:53:20;;;;;;;;;;;;;;;4.05;100.00;99336.25;5069683;28;20478;-76
2023/01/09 06:55:45;;;;;;;;;;;;;;;4.02;100.00;99341.63;5088757;28;19936;-75
2023/01/09 06:58:11;;;;;;;;;;;;;;;4.00;100.00;99346.94;5089242;28;20073;-75
2023/01/09 07:00:36;;;;;;;;;;;;;;;3.98;100.00;99348.75;5087952;28;20069;-75
2023/01/09 07:03:01;;;;;;;;;;;;;;;3.97;100.00;99354.06;5070117;28;19962;-75
2023/01/09 07:05:27;;;;;;;;;;;;;;;3.94;100.00;99347.19;5070176;28;19924;-75
2023/01/09 07:07:52;;;;;;;;;;;;;;;3.91;100.00;99347.31;5055986;28;19924;-74
2023/01/09 07:10:18;;;;;;;;;;;;;;;3.90;100.00;99349.09;5088880;28;20036;-75
2023/01/09 07:12:43;;;;;;;;;;;;;;;3.89;100.00;99349.16;5069837;28;19977;-75
2023/01/09 07:15:08;;;;;;;;;;;;;;;3.86;100.00;99352.75;5088929;28;19920;-75
2023/01/09 07:17:34;;;;;;;;;;;;;;;3.86;100.00;99350.13;5088477;28;19975;-75
2023/01/09 07:19:59;;;;;;;;;;;;;;;3.84;100.00;99351.97;5087754;28;19935;-75
2023/01/09 07:22:25;;;;;;;;;;;;;;;3.84;100.00;99357.19;5088692;28;20379;-74
2023/01/09 07:24:50;;;;;;;;;;;;;;;3.84;100.00;99359.81;5071589;28;19975;-75
2023/01/09 07:27:15;;;;;;;;;;;;;;;3.84;100.00;99359.81;5091248;28;19932;-75
2023/01/09 07:29:41;;;;;;;;;;;;;;;3.85;100.00;99355.41;5073703;28;20290;-75
2023/01/09 07:32:06;;;;;;;;;;;;;;;3.86;100.00;99371.06;5088514;28;19967;-74
2023/01/09 07:34:32;;;;;;;;;;;;;;;3.86;100.00;99368.47;5071267;28;19951;-75
2023/01/09 07:36:57;;;;;;;;;;;;;;;3.87;100.00;99367.53;5088658;28;19963;-75
2023/01/09 07:39:22;;;;;;;;;;;;;;;3.88;100.00;99369.22;5069373;28;20401;-74
2023/01/09 07:41:48;;;;;;;;;;;;;;;3.90;100.00;99361.31;5087976;28;20350;-75
2023/01/09 07:44:13;;;;;;;;;;;;;;;3.90;100.00;99359.56;5087412;28;19932;-75
2023/01/09 07:46:38;;;;;;;;;;;;;;;3.90;100.00;99364.81;5087657;28;19928;-75
2023/01/09 07:49:04;;;;;;;;;;;;;;;3.89;100.00;99354.38;5069213;28;19959;-75
2023/01/09 07:51:29;;;;;;;;;;;;;;;3.90;100.00;99361.31;5086994;28;19928;-75
2023/01/09 07:53:55;;;;;;;;;;;;;;;3.90;100.00;99362.19;5087298;28;20159;-75
2023/01/09 07:56:20;;;;;;;;;;;;;;;3.90;100.00;99362.19;5068834;28;19928;-74
2023/01/09 07:58:45;;;;;;;;;;;;;;;3.92;100.00;99356.91;5069564;28;19973;-74
2023/01/09 08:01:10;;;;;;;;;;;;;;;3.92;100.00;99359.50;5087321;28;20516;-75
2023/01/09 08:03:37;;;;;;;;;;;;;;;3.93;100.00;99364.66;5069202;28;19932;-75
2023/01/09 08:06:02;;;;;;;;;;;;;;;3.92;100.00;99368.19;5057992;28;19935;-74
2023/01/09 08:08:27;;;;;;;;;;;;;;;3.92;100.00;99380.47;5086193;28;19928;-75
2023/01/09 08:10:53;;;;;;;;;;;;;;;3.94;100.00;99382.06;5086640;28;20787;-75
2023/01/09 08:13:18;;;;;;;;;;;;;;;3.93;100.00;99383.00;5087684;28;20075;-75
2023/01/09 08:15:43;;;;;;;;;;;;;;;3.93;100.00;99385.63;5068236;28;20352;-74
2023/01/09 08:18:09;;;;;;;;;;;;;;;3.95;100.00;99385.56;5086374;28;20481;-75
2023/01/09 08:20:34;;;;;;;;;;;;;;;3.97;100.00;99380.28;5086603;28;19973;-75
2023/01/09 08:22:59;;;;;;;;;;;;;;;3.98;100.00;99381.97;5086135;28;19961;-75
2023/01/09 08:25:25;;;;;;;;;;;;;;;4.00;100.00;99380.13;5068345;28;19932;-75
2023/01/09 08:27:50;;;;;;;;;;;;;;;4.01;100.00;99389.69;5068457;28;19935;-75
2023/01/09 08:30:16;;;;;;;;;;;;;;;4.02;100.00;99387.00;5086742;28;19931;-75
2023/01/09 08:32:41;;;;;;;;;;;;;;;4.04;100.00;99392.19;5085913;28;19928;-75
2023/01/09 08:35:07;;;;;;;;;;;;;;;4.06;100.00;99398.22;5067709;28;19932;-75
2023/01/09 08:37:33;;;;;;;;;;;;;;;4.10;100.00;99404.16;5036042;28;20373;-75
2023/01/09 08:39:58;;;;;;;;;;;;;;;4.11;100.00;99405.88;5085805;28;19973;-75
2023/01/09 08:47:54;;;;;;;;;;;;;;;4.16;100.00;99412.63;5052877;28;20367;-74
2023/01/09 08:50:20;;;;;;;;;;;;;;;4.19;100.00;99415.13;5049618;28;19999;-73
2023/01/09 08:52:45;;;;;;;;;;;;;;;4.22;100.00;99416.75;5084243;28;19934;-74
2023/01/09 08:55:11;;;;;;;;;;;;;;;4.23;100.00;99415.00;5066684;28;20433;-76
2023/01/09 08:57:36;;;;;;;;;;;;;;;4.26;100.00;99420.09;5050943;28;19923;-76
2023/01/09 09:00:01;;;;;;;;;;;;;;;4.27;100.00;99421.81;5064987;28;20327;-74
2023/01/09 09:02:27;;;;;;;;;;;;;;;4.30;100.00;99421.69;5066327;28;20425;-74
2023/01/09 09:04:52;;;;;;;;;;;;;;;4.32;100.00;99419.84;5075935;28;19931;-74
2023/01/09 09:07:25;;;;;;;;;;;;;;;4.34;100.00;99424.09;5033548;28;20382;-75
2023/01/09 09:09:51;;;;;;;;;;;;;;;4.36;100.00;99418.78;5051968;28;19982;-74
2023/01/09 09:12:16;;;;;;;;;;;;;;;4.38;100.00;99422.22;5077008;28;19928;-74
2023/01/09 09:17:27;;;;;;;;;;;;;;;4.41;100.00;99423.84;5078777;28;20536;-75
2023/01/09 09:19:53;;;;;;;;;;;;;;;4.42;100.00;99430.78;5080574;28;19932;-74
2023/01/09 09:22:18;;;;;;;;;;;;;;;4.45;100.00;99433.28;5080377;28;19927;-74
2023/01/09 09:24:43;;;;;;;;;;;;;;;4.48;100.00;99433.16;5075908;28;19928;-74
2023/01/09 09:27:09;;;;;;;;;;;;;;;4.51;100.00;99435.63;5078898;28;19928;-74
2023/01/09 09:29:34;;;;;;;;;;;;;;;4.53;100.00;99440.81;5059888;28;19928;-74
2023/01/09 09:31:59;;;;;;;;;;;;;;;4.54;100.00;99434.66;5074102;28;19928;-74
2023/01/09 09:34:24;;;;;;;;;;;;;;;4.56;100.00;99441.53;5081346;28;19931;-74
2023/01/09 09:36:50;;;;;;;;;;;;;;;4.58;100.00;99444.94;5060058;28;19932;-74
2023/01/09 09:39:15;;;;;;;;;;;;;;;4.60;100.00;99445.75;5079055;28;19939;-74
2023/01/09 09:44:47;;;;;;;;;;;;;;;4.67;100.00;99450.69;5079664;28;19927;-74
2023/01/09 09:47:22;;;;;;;;;;;;;;;4.70;100.00;99453.19;5038240;28;19925;-75
2023/01/09 09:50:06;;;;;;;;;;;;;;;4.74;100.00;99460.03;5057120;28;20327;-75
2023/01/09 09:52:34;;;;;;;;;;;;;;;4.78;100.00;99456.34;5043835;28;20017;-76
2023/01/09 09:55:00;;;;;;;;;;;;;;;4.84;100.00;99465.69;5059387;28;19924;-74
2023/01/09 09:57:28;;;;;;;;;;;;;;;4.86;100.00;99464.72;5056981;28;19928;-78
2023/01/09 09:59:53;;;;;;;;;;;;;;;4.91;100.00;99475.03;5046728;28;20010;-73
2023/01/09 10:02:28;;;;;;;;;;;;;;;4.93;100.00;99467.94;5054726;28;19924;-73
2023/01/09 10:04:56;;;;;;;;;;;;;;;4.94;100.00;99474.00;5055401;28;20480;-74
2023/01/09 10:07:23;;;;;;;;;;;;;;;4.96;100.00;99477.44;5039562;28;19925;-74
2023/01/09 10:09:55;;;;;;;;;;;;;;;4.97;100.00;99479.13;5040725;28;20015;-74
2023/01/09 10:12:27;;;;;;;;;;;;;;;4.98;100.00;99486.94;5038933;28;20347;-75
2023/01/09 10:14:53;;;;;;;;;;;;;;;4.98;100.00;99492.19;5010513;28;19936;-77
2023/01/09 10:17:45;;;;;;;;;;;;;;;5.01;100.00;99492.03;4984957;28;20383;-77
2023/01/09 10:20:22;;;;;;;;;;;;;;;5.03;100.00;99495.44;4963133;28;20154;-76
2023/01/09 10:22:48;;;;;;;;;;;;;;;5.03;100.00;99508.56;5001754;28;20348;-76
2023/01/09 10:25:35;;;;;;;;;;;;;;;5.04;100.00;99512.06;5002479;28;19925;-76
2023/01/09 10:28:10;;;;;;;;;;;;;;;5.06;100.00;99506.75;4985502;28;20453;-76
2023/01/09 10:30:47;;;;;;;;;;;;;;;5.05;100.00;99503.25;4997487;28;19979;-76
2023/01/09 10:33:15;;;;;;;;;;;;;;;5.07;100.00;99508.44;4998745;28;20037;-76
2023/01/09 10:35:41;;;;;;;;;;;;;;;5.07;100.00;99511.91;5004132;28;19936;-76
2023/01/09 10:38:07;;;;;;;;;;;;;;;5.06;100.00;99515.44;4988417;28;19921;-76
2023/01/09 10:40:41;;;;;;;;;;;;;;;5.07;100.00;99522.41;4988656;28;19964;-76
2023/01/09 10:43:14;;;;;;;;;;;;;;;5.08;100.00;99524.13;4973332;28;19930;-78
2023/01/09 10:45:41;;;;;;;;;;;;;;;5.08;100.00;99529.38;4988915;28;20071;-74
2023/01/09 10:48:16;;;;;;;;;;;;;;;5.09;100.00;99530.22;4978952;28;19977;-74
2023/01/09 10:50:42;;;;;;;;;;;;;;;5.08;100.00;99529.38;4982319;28;19953;-74
2023/01/09 10:53:15;;;;;;;;;;;;;;;5.09;100.00;99528.44;4976645;28;19999;-74
2023/01/09 10:55:42;;;;;;;;;;;;;;;5.10;100.00;99521.41;4971857;28;19929;-74
2023/01/09 10:58:12;;;;;;;;;;;;;;;5.10;100.00;99534.53;4983786;28;20301;-73
2023/01/09 11:00:37;;;;;;;;;;;;;;;5.09;100.00;99538.94;4987546;28;19965;-74
2023/01/09 11:03:03;;;;;;;;;;;;;;;5.10;100.00;99526.66;5003458;28;20016;-74
2023/01/09 11:05:32;;;;;;;;;;;;;;;5.10;100.00;99534.53;4956625;28;19925;-73
2023/01/09 11:08:07;;;;;;;;;;;;;;;5.10;100.00;99540.66;4972377;28;21281;-74
2023/01/09 11:10:47;;;;;;;;;;;;;;;5.13;100.00;99543.13;5003006;28;19917;-74
2023/01/09 11:13:23;;;;;;;;;;;;;;;5.15;100.00;99545.69;4987757;28;19933;-74
2023/01/09 11:15:58;;;;;;;;;;;;;;;5.16;100.00;99552.63;4985521;28;19921;-74
2023/01/09 11:18:24;;;;;;;;;;;;;;;5.19;100.00;99542.03;4999579;28;19935;-74
2023/01/09 11:20:50;;;;;;;;;;;;;;;5.22;100.00;99549.75;5001921;28;19929;-74
2023/01/09 11:23:26;;;;;;;;;;;;;;;5.24;100.00;99561.00;5001323;28;20529;-75
2023/01/09 11:25:52;;;;;;;;;;;;;;;5.27;100.00;99563.53;5002631;28;19936;-74
2023/01/09 11:28:18;;;;;;;;;;;;;;;5.30;100.00;99562.53;4999134;28;19933;-74
2023/01/09 11:30:59;;;;;;;;;;;;;;;5.34;100.00;99565.88;4996570;28;19972;-74
2023/01/09 11:33:40;;;;;;;;;;;;;;;5.36;100.00;99557.03;4988395;28;19960;-74
2023/01/09 11:36:06;;;;;;;;;;;;;;;5.38;100.00;99570.06;4991366;28;19936;-74
2023/01/09 11:38:44;;;;;;;;;;;;;;;5.41;100.00;99580.44;5003336;28;19941;-74
2023/01/09 11:41:12;;;;;;;;;;;;;;;5.44;100.00;99577.66;4986341;28;20407;-74
2023/01/09 11:43:38;;;;;;;;;;;;;;;5.46;100.00;99574.97;4987165;28;19925;-74
2023/01/09 11:46:05;;;;;;;;;;;;;;;5.47;100.00;99581.94;5004875;28;19983;-74
2023/01/09 11:48:35;;;;;;;;;;;;;;;5.50;100.00;99577.38;5016395;28;19937;-76
2023/01/09 11:51:02;;;;;;;;;;;;;;;5.51;100.00;99581.72;4993265;28;20032;-74
2023/01/09 11:53:27;;;;;;;;;;;;;;;5.54;100.00;99584.22;5005054;28;19928;-74
2023/01/09 11:56:02;;;;;;;;;;;;;;;5.56;100.00;99578.91;5022585;28;19924;-74
2023/01/09 11:58:32;;;;;;;;;;;;;;;5.57;100.00;99584.06;5014515;28;19925;-74
2023/01/09 12:00:59;;;;;;;;;;;;;;;5.61;100.00;99597.09;5022755;28;19933;-74
2023/01/09 12:03:43;;;;;;;;;;;;;;;5.62;100.00;99591.75;5006339;28;19933;-74
2023/01/09 12:06:14;;;;;;;;;;;;;;;5.64;100.00;99592.53;5023811;28;19931;-74
2023/01/09 12:08:40;;;;;;;;;;;;;;;5.65;100.00;99590.75;5005172;28;20433;-74
2023/01/09 12:11:05;;;;;;;;;;;;;;;5.65;100.00;99602.13;5004635;28;19925;-73
2023/01/09 12:13:49;;;;;;;;;;;;;;;5.65;100.00;99604.75;5025204;28;19928;-73
2023/01/09 12:16:18;;;;;;;;;;;;;;;5.67;100.00;99617.81;5024067;28;19978;-73
2023/01/09 12:19:02;;;;;;;;;;;;;;;5.69;100.00;99608.09;5022766;28;20015;-73
2023/01/09 12:21:33;;;;;;;;;;;;;;;5.72;100.00;99610.56;5023492;28;19935;-73
2023/01/09 12:24:17;;;;;;;;;;;;;;;5.72;100.00;99607.94;4992337;28;20034;-74
2023/01/09 12:27:01;;;;;;;;;;;;;;;5.73;100.00;99606.19;5025923;28;19925;-74
2023/01/09 12:29:27;;;;;;;;;;;;;;;5.73;100.00;99599.16;5025538;28;19944;-74
2023/01/09 12:32:19;;;;;;;;;;;;;;;5.73;100.00;99604.41;5002023;28;20430;-73
2023/01/09 12:34:47;;;;;;;;;;;;;;;5.72;100.00;99613.19;4982128;28;19931;-73
2023/01/09 12:37:22;;;;;;;;;;;;;;;5.68;100.00;99604.59;5025177;28;19921;-74
2023/01/09 12:40:02;;;;;;;;;;;;;;;5.68;100.00;99612.47;5023512;28;19921;-73
2023/01/09 12:42:40;;;;;;;;;;;;;;;5.68;100.00;99622.16;5020188;28;20064;-73
2023/01/09 12:45:18;;;;;;;;;;;;;;;5.68;100.00;99622.97;5003798;28;19929;-73
2023/01/09 12:47:45;;;;;;;;;;;;;;;5.69;100.00;99626.47;4987101;28;19929;-73
2023/01/09 12:50:13;;;;;;;;;;;;;;;5.72;100.00;99634.19;5006228;28;19983;-73
2023/01/09 12:52:58;;;;;;;;;;;;;;;5.73;100.00;99635.06;5003658;28;19925;-73
2023/01/09 12:55:24;;;;;;;;;;;;;;;5.75;100.00;99626.19;5005091;28;21568;-73
2023/01/09 12:57:50;;;;;;;;;;;;;;;5.78;100.00;99638.34;4985167;28;20008;-77
2023/01/09 13:00:19;;;;;;;;;;;;;;;5.80;100.00;99639.97;4986617;28;19947;-74
2023/01/09 13:02:47;;;;;;;;;;;;;;;5.84;100.00;99649.41;5002746;28;19929;-74
2023/01/09 13:05:15;;;;;;;;;;;;;;;5.87;100.00;99658.94;4989604;28;20395;-74